sensor_id;sensor_type;location;lat;lon;timestamp;P1;P2;P0
69222;PMS7003;56514;51.816;-0.026;2023-04-16T00:02:16;18.00;18.00;12.50
69222;PMS7003;56514;51.816;-0.026;2023-04-16T00:05:01;15.50;15.50;11.75
69222;PMS7003;56514;51.816;-0.026;2023-04-16T00:07:46;14.50;14.50;10.50
69222;PMS7003;56514;51.816;-0.026;2023-04-16T00:10:31;18.25;18.25;12.50
69222;PMS7003;56514;51.816;-0.026;2023-04-16T00:13:17;15.75;14.50;10.00
69222;PMS7003;56514;51.816;-0.026;2023-04-16T00:16:02;11.75;11.75;7.50
69222;PMS7003;56514;51.816;-0.026;2023-04-16T00:18:48;17.75;17.75;12.00
69222;PMS7003;56514;51.816;-0.026;2023-04-16T00:21:32;11.50;10.50;9.25
69222;PMS7003;56514;51.816;-0.026;2023-04-16T00:24:18;12.00;12.00;10.00
69222;PMS7003;56514;51.816;-0.026;2023-04-16T00:27:03;13.75;11.00;8.50
69222;PMS7003;56514;51.816;-0.026;2023-04-16T00:29:47;14.50;13.00;10.25
69222;PMS7003;56514;51.816;-0.026;2023-04-16T00:32:32;16.00;14.25;11.50
69222;PMS7003;56514;51.816;-0.026;2023-04-16T00:35:17;12.50;11.75;9.75
69222;PMS7003;56514;51.816;-0.026;2023-04-16T00:38:02;18.75;17.50;12.25
69222;PMS7003;56514;51.816;-0.026;2023-04-16T00:40:48;18.00;15.25;10.00
69222;PMS7003;56514;51.816;-0.026;2023-04-16T00:43:36;17.75;17.75;11.50
69222;PMS7003;56514;51.816;-0.026;2023-04-16T00:46:22;18.00;18.00;12.00
69222;PMS7003;56514;51.816;-0.026;2023-04-16T00:49:08;16.50;16.50;12.75
69222;PMS7003;56514;51.816;-0.026;2023-04-16T00:51:54;12.75;12.75;9.25
69222;PMS7003;56514;51.816;-0.026;2023-04-16T00:54:39;15.75;14.00;11.50
69222;PMS7003;56514;51.816;-0.026;2023-04-16T00:57:24;16.00;16.00;10.00
69222;PMS7003;56514;51.816;-0.026;2023-04-16T01:00:11;19.00;19.00;12.00
69222;PMS7003;56514;51.816;-0.026;2023-04-16T01:02:57;17.00;15.25;10.50
69222;PMS7003;56514;51.816;-0.026;2023-04-16T01:05:43;17.50;16.25;12.25
69222;PMS7003;56514;51.816;-0.026;2023-04-16T01:08:29;18.25;18.25;12.00
69222;PMS7003;56514;51.816;-0.026;2023-04-16T01:11:14;16.00;16.00;11.75
69222;PMS7003;56514;51.816;-0.026;2023-04-16T01:13:59;16.50;16.50;11.50
69222;PMS7003;56514;51.816;-0.026;2023-04-16T01:16:44;19.25;17.50;12.50
69222;PMS7003;56514;51.816;-0.026;2023-04-16T01:19:29;19.25;17.00;12.50
69222;PMS7003;56514;51.816;-0.026;2023-04-16T01:22:20;17.50;17.50;12.00
69222;PMS7003;56514;51.816;-0.026;2023-04-16T01:25:04;16.67;16.67;12.33
69222;PMS7003;56514;51.816;-0.026;2023-04-16T01:27:50;19.00;18.50;13.00
69222;PMS7003;56514;51.816;-0.026;2023-04-16T01:30:36;15.00;15.00;12.00
69222;PMS7003;56514;51.816;-0.026;2023-04-16T01:33:22;19.25;19.25;12.25
69222;PMS7003;56514;51.816;-0.026;2023-04-16T01:36:07;22.00;20.25;13.75
69222;PMS7003;56514;51.816;-0.026;2023-04-16T01:38:52;22.00;21.00;14.50
69222;PMS7003;56514;51.816;-0.026;2023-04-16T01:41:36;29.00;26.25;17.75
69222;PMS7003;56514;51.816;-0.026;2023-04-16T01:44:21;23.75;23.25;14.00
69222;PMS7003;56514;51.816;-0.026;2023-04-16T01:47:07;23.25;22.00;14.00
69222;PMS7003;56514;51.816;-0.026;2023-04-16T01:49:52;20.00;20.00;15.00
69222;PMS7003;56514;51.816;-0.026;2023-04-16T01:52:38;24.00;22.75;15.50
69222;PMS7003;56514;51.816;-0.026;2023-04-16T01:55:23;35.33;32.33;19.00
69222;PMS7003;56514;51.816;-0.026;2023-04-16T01:58:08;22.25;21.75;15.75
69222;PMS7003;56514;51.816;-0.026;2023-04-16T02:00:54;24.00;24.00;15.00
69222;PMS7003;56514;51.816;-0.026;2023-04-16T02:03:39;20.25;17.75;11.00
69222;PMS7003;56514;51.816;-0.026;2023-04-16T02:06:25;25.25;25.25;14.75
69222;PMS7003;56514;51.816;-0.026;2023-04-16T02:09:10;18.50;18.50;10.50
69222;PMS7003;56514;51.816;-0.026;2023-04-16T02:11:55;18.75;18.75;15.75
69222;PMS7003;56514;51.816;-0.026;2023-04-16T02:14:41;24.00;24.00;15.00
69222;PMS7003;56514;51.816;-0.026;2023-04-16T02:17:26;24.75;24.75;15.00
69222;PMS7003;56514;51.816;-0.026;2023-04-16T02:20:11;21.75;21.00;14.00
69222;PMS7003;56514;51.816;-0.026;2023-04-16T02:22:55;18.50;18.50;14.00
69222;PMS7003;56514;51.816;-0.026;2023-04-16T02:25:44;22.50;21.25;15.25
69222;PMS7003;56514;51.816;-0.026;2023-04-16T02:28:30;24.25;24.25;16.25
69222;PMS7003;56514;51.816;-0.026;2023-04-16T02:31:15;19.25;19.25;14.00
69222;PMS7003;56514;51.816;-0.026;2023-04-16T02:34:03;21.75;20.75;15.50
69222;PMS7003;56514;51.816;-0.026;2023-04-16T02:36:48;24.50;22.50;13.25
69222;PMS7003;56514;51.816;-0.026;2023-04-16T02:39:34;25.50;25.50;15.00
69222;PMS7003;56514;51.816;-0.026;2023-04-16T02:42:18;20.00;20.00;13.50
69222;PMS7003;56514;51.816;-0.026;2023-04-16T02:45:04;23.00;23.00;15.00
69222;PMS7003;56514;51.816;-0.026;2023-04-16T02:47:49;25.00;23.00;15.00
69222;PMS7003;56514;51.816;-0.026;2023-04-16T02:50:38;20.75;20.75;13.25
69222;PMS7003;56514;51.816;-0.026;2023-04-16T02:53:23;19.50;19.50;12.00
69222;PMS7003;56514;51.816;-0.026;2023-04-16T02:56:08;27.00;26.00;17.00
69222;PMS7003;56514;51.816;-0.026;2023-04-16T02:58:54;29.25;28.00;16.00
69222;PMS7003;56514;51.816;-0.026;2023-04-16T03:01:38;19.00;18.50;13.00
69222;PMS7003;56514;51.816;-0.026;2023-04-16T03:04:23;21.75;21.75;16.00
69222;PMS7003;56514;51.816;-0.026;2023-04-16T03:07:08;24.25;21.00;13.00
69222;PMS7003;56514;51.816;-0.026;2023-04-16T03:09:54;14.50;12.75;6.25
69222;PMS7003;56514;51.816;-0.026;2023-04-16T03:12:39;24.75;21.75;16.00
69222;PMS7003;56514;51.816;-0.026;2023-04-16T03:15:24;18.25;18.25;13.25
69222;PMS7003;56514;51.816;-0.026;2023-04-16T03:18:09;18.67;18.67;12.33
69222;PMS7003;56514;51.816;-0.026;2023-04-16T03:20:54;17.00;17.00;10.25
69222;PMS7003;56514;51.816;-0.026;2023-04-16T03:23:39;13.00;13.00;12.00
69222;PMS7003;56514;51.816;-0.026;2023-04-16T03:26:24;19.50;18.75;14.00
69222;PMS7003;56514;51.816;-0.026;2023-04-16T03:29:09;22.50;22.50;12.75
69222;PMS7003;56514;51.816;-0.026;2023-04-16T03:31:54;19.00;19.00;13.25
69222;PMS7003;56514;51.816;-0.026;2023-04-16T03:34:39;21.50;21.50;15.25
69222;PMS7003;56514;51.816;-0.026;2023-04-16T03:37:24;20.75;19.25;10.50
69222;PMS7003;56514;51.816;-0.026;2023-04-16T03:40:09;16.00;15.25;10.00
69222;PMS7003;56514;51.816;-0.026;2023-04-16T03:42:54;17.25;17.25;10.00
69222;PMS7003;56514;51.816;-0.026;2023-04-16T03:45:43;20.50;20.50;13.50
69222;PMS7003;56514;51.816;-0.026;2023-04-16T03:48:28;20.75;20.75;13.75
69222;PMS7003;56514;51.816;-0.026;2023-04-16T03:51:13;17.00;17.00;13.75
69222;PMS7003;56514;51.816;-0.026;2023-04-16T03:53:59;19.00;19.00;15.33
69222;PMS7003;56514;51.816;-0.026;2023-04-16T03:56:43;16.25;16.25;12.50
69222;PMS7003;56514;51.816;-0.026;2023-04-16T03:59:29;19.75;18.75;13.25
69222;PMS7003;56514;51.816;-0.026;2023-04-16T04:02:14;17.25;16.25;11.75
69222;PMS7003;56514;51.816;-0.026;2023-04-16T04:04:58;19.75;17.25;11.50
69222;PMS7003;56514;51.816;-0.026;2023-04-16T04:07:43;18.00;16.00;9.25
69222;PMS7003;56514;51.816;-0.026;2023-04-16T04:10:30;14.50;14.50;12.25
69222;PMS7003;56514;51.816;-0.026;2023-04-16T04:13:16;17.00;15.75;10.50
69222;PMS7003;56514;51.816;-0.026;2023-04-16T04:16:00;16.75;16.75;10.25
69222;PMS7003;56514;51.816;-0.026;2023-04-16T04:18:45;17.00;15.50;12.50
69222;PMS7003;56514;51.816;-0.026;2023-04-16T04:21:30;14.50;14.50;10.50
69222;PMS7003;56514;51.816;-0.026;2023-04-16T04:24:15;20.50;18.75;12.75
69222;PMS7003;56514;51.816;-0.026;2023-04-16T04:27:00;21.75;21.25;15.00
69222;PMS7003;56514;51.816;-0.026;2023-04-16T04:29:45;21.75;20.75;12.50
69222;PMS7003;56514;51.816;-0.026;2023-04-16T04:32:30;23.75;22.50;13.50
69222;PMS7003;56514;51.816;-0.026;2023-04-16T04:35:15;20.00;20.00;12.50
69222;PMS7003;56514;51.816;-0.026;2023-04-16T04:38:01;18.50;18.50;12.00
69222;PMS7003;56514;51.816;-0.026;2023-04-16T04:40:47;17.00;16.00;11.50
69222;PMS7003;56514;51.816;-0.026;2023-04-16T04:43:32;16.00;16.00;12.25
69222;PMS7003;56514;51.816;-0.026;2023-04-16T04:46:17;29.00;27.33;15.67
69222;PMS7003;56514;51.816;-0.026;2023-04-16T04:49:02;18.00;18.00;15.00
69222;PMS7003;56514;51.816;-0.026;2023-04-16T04:51:46;19.50;19.50;15.00
69222;PMS7003;56514;51.816;-0.026;2023-04-16T04:54:32;19.50;19.50;14.50
69222;PMS7003;56514;51.816;-0.026;2023-04-16T04:57:17;22.67;22.67;16.00
69222;PMS7003;56514;51.816;-0.026;2023-04-16T05:00:01;27.33;27.33;16.00
69222;PMS7003;56514;51.816;-0.026;2023-04-16T05:02:48;21.75;21.75;15.25
69222;PMS7003;56514;51.816;-0.026;2023-04-16T05:05:33;22.00;20.75;13.00
69222;PMS7003;56514;51.816;-0.026;2023-04-16T05:08:18;15.25;15.25;12.00
69222;PMS7003;56514;51.816;-0.026;2023-04-16T05:11:03;18.25;18.25;11.75
69222;PMS7003;56514;51.816;-0.026;2023-04-16T05:13:48;22.50;21.25;13.50
69222;PMS7003;56514;51.816;-0.026;2023-04-16T05:16:36;19.50;19.50;12.25
69222;PMS7003;56514;51.816;-0.026;2023-04-16T05:19:21;20.00;20.00;13.75
69222;PMS7003;56514;51.816;-0.026;2023-04-16T05:22:06;13.00;13.00;8.50
69222;PMS7003;56514;51.816;-0.026;2023-04-16T05:24:50;17.00;15.50;11.50
69222;PMS7003;56514;51.816;-0.026;2023-04-16T05:27:36;12.00;12.00;9.00
69222;PMS7003;56514;51.816;-0.026;2023-04-16T05:30:21;16.25;16.25;9.75
69222;PMS7003;56514;51.816;-0.026;2023-04-16T05:33:06;15.75;15.75;12.50
69222;PMS7003;56514;51.816;-0.026;2023-04-16T05:35:51;19.25;19.25;13.00
69222;PMS7003;56514;51.816;-0.026;2023-04-16T05:38:37;22.00;22.00;15.50
69222;PMS7003;56514;51.816;-0.026;2023-04-16T05:41:22;24.00;21.25;16.00
69222;PMS7003;56514;51.816;-0.026;2023-04-16T05:44:07;19.00;19.00;12.50
69222;PMS7003;56514;51.816;-0.026;2023-04-16T05:46:52;11.75;11.75;10.25
69222;PMS7003;56514;51.816;-0.026;2023-04-16T05:49:38;20.75;19.50;13.00
69222;PMS7003;56514;51.816;-0.026;2023-04-16T05:52:22;18.75;18.75;12.25
69222;PMS7003;56514;51.816;-0.026;2023-04-16T05:55:07;13.00;13.00;10.75
69222;PMS7003;56514;51.816;-0.026;2023-04-16T05:57:52;21.00;21.00;13.50
69222;PMS7003;56514;51.816;-0.026;2023-04-16T06:00:37;15.25;15.25;10.25
69222;PMS7003;56514;51.816;-0.026;2023-04-16T06:03:22;22.50;18.00;12.25
69222;PMS7003;56514;51.816;-0.026;2023-04-16T06:06:07;16.50;16.50;12.25
69222;PMS7003;56514;51.816;-0.026;2023-04-16T06:08:52;19.50;16.50;12.50
69222;PMS7003;56514;51.816;-0.026;2023-04-16T06:11:37;20.75;20.75;14.75
69222;PMS7003;56514;51.816;-0.026;2023-04-16T06:14:22;18.00;16.00;11.75
69222;PMS7003;56514;51.816;-0.026;2023-04-16T06:17:07;18.00;18.00;10.50
69222;PMS7003;56514;51.816;-0.026;2023-04-16T06:19:52;19.25;19.25;13.50
69222;PMS7003;56514;51.816;-0.026;2023-04-16T06:22:37;17.50;17.50;10.50
69222;PMS7003;56514;51.816;-0.026;2023-04-16T06:25:23;18.25;18.25;11.75
69222;PMS7003;56514;51.816;-0.026;2023-04-16T06:28:08;14.75;13.00;10.25
69222;PMS7003;56514;51.816;-0.026;2023-04-16T06:30:52;14.50;14.50;10.25
69222;PMS7003;56514;51.816;-0.026;2023-04-16T06:33:37;14.25;14.25;9.75
69222;PMS7003;56514;51.816;-0.026;2023-04-16T06:36:22;12.00;12.00;10.00
69222;PMS7003;56514;51.816;-0.026;2023-04-16T06:39:07;18.00;18.00;11.00
69222;PMS7003;56514;51.816;-0.026;2023-04-16T06:41:51;17.00;17.00;13.50
69222;PMS7003;56514;51.816;-0.026;2023-04-16T06:44:37;14.50;14.50;10.50
69222;PMS7003;56514;51.816;-0.026;2023-04-16T06:47:21;19.75;19.75;12.00
69222;PMS7003;56514;51.816;-0.026;2023-04-16T06:50:06;17.25;17.25;11.00
69222;PMS7003;56514;51.816;-0.026;2023-04-16T06:52:51;15.50;15.50;13.00
69222;PMS7003;56514;51.816;-0.026;2023-04-16T06:55:37;16.50;14.75;10.50
69222;PMS7003;56514;51.816;-0.026;2023-04-16T06:58:22;17.75;17.75;12.00
69222;PMS7003;56514;51.816;-0.026;2023-04-16T07:01:07;19.50;19.50;12.75
69222;PMS7003;56514;51.816;-0.026;2023-04-16T07:03:53;16.50;16.50;11.75
69222;PMS7003;56514;51.816;-0.026;2023-04-16T07:06:38;18.00;18.00;14.00
69222;PMS7003;56514;51.816;-0.026;2023-04-16T07:09:24;20.50;20.50;15.25
69222;PMS7003;56514;51.816;-0.026;2023-04-16T07:12:10;19.50;19.00;12.25
69222;PMS7003;56514;51.816;-0.026;2023-04-16T07:14:55;20.00;20.00;14.00
69222;PMS7003;56514;51.816;-0.026;2023-04-16T07:17:40;24.25;22.50;14.25
69222;PMS7003;56514;51.816;-0.026;2023-04-16T07:20:25;16.50;16.50;13.00
69222;PMS7003;56514;51.816;-0.026;2023-04-16T07:23:10;26.75;25.75;16.50
69222;PMS7003;56514;51.816;-0.026;2023-04-16T07:25:55;21.00;21.00;13.00
69222;PMS7003;56514;51.816;-0.026;2023-04-16T07:28:40;18.00;18.00;13.50
69222;PMS7003;56514;51.816;-0.026;2023-04-16T07:31:25;21.50;20.25;14.50
69222;PMS7003;56514;51.816;-0.026;2023-04-16T07:34:10;18.75;18.75;12.50
69222;PMS7003;56514;51.816;-0.026;2023-04-16T07:36:56;19.25;18.50;11.50
69222;PMS7003;56514;51.816;-0.026;2023-04-16T07:39:40;21.00;21.00;16.75
69222;PMS7003;56514;51.816;-0.026;2023-04-16T07:42:26;18.75;18.75;14.00
69222;PMS7003;56514;51.816;-0.026;2023-04-16T07:45:11;19.00;19.00;14.75
69222;PMS7003;56514;51.816;-0.026;2023-04-16T07:47:56;19.00;18.50;15.00
69222;PMS7003;56514;51.816;-0.026;2023-04-16T07:50:41;22.50;22.50;14.75
69222;PMS7003;56514;51.816;-0.026;2023-04-16T07:53:27;23.25;23.25;16.50
69222;PMS7003;56514;51.816;-0.026;2023-04-16T07:56:11;18.00;18.00;13.75
69222;PMS7003;56514;51.816;-0.026;2023-04-16T07:58:56;20.25;19.50;12.25
69222;PMS7003;56514;51.816;-0.026;2023-04-16T08:01:41;27.00;27.00;17.75
69222;PMS7003;56514;51.816;-0.026;2023-04-16T08:04:26;23.75;23.75;17.25
69222;PMS7003;56514;51.816;-0.026;2023-04-16T08:07:11;27.00;27.00;17.25
69222;PMS7003;56514;51.816;-0.026;2023-04-16T08:09:56;24.75;24.75;16.50
69222;PMS7003;56514;51.816;-0.026;2023-04-16T08:12:41;23.75;23.75;16.75
69222;PMS7003;56514;51.816;-0.026;2023-04-16T08:15:26;27.75;27.75;17.25
69222;PMS7003;56514;51.816;-0.026;2023-04-16T08:18:11;23.25;23.25;16.50
69222;PMS7003;56514;51.816;-0.026;2023-04-16T08:20:59;20.00;18.75;15.25
69222;PMS7003;56514;51.816;-0.026;2023-04-16T08:23:44;22.75;22.75;17.00
69222;PMS7003;56514;51.816;-0.026;2023-04-16T08:26:29;26.25;23.50;16.25
69222;PMS7003;56514;51.816;-0.026;2023-04-16T08:29:33;25.00;23.50;14.00
69222;PMS7003;56514;51.816;-0.026;2023-04-16T08:32:38;22.50;22.50;13.50
69222;PMS7003;56514;51.816;-0.026;2023-04-16T08:35:43;20.00;20.00;14.75
69222;PMS7003;56514;51.816;-0.026;2023-04-16T08:38:48;19.75;19.75;15.25
69222;PMS7003;56514;51.816;-0.026;2023-04-16T08:41:58;22.00;21.25;16.25
69222;PMS7003;56514;51.816;-0.026;2023-04-16T08:45:12;21.25;20.25;13.00
69222;PMS7003;56514;51.816;-0.026;2023-04-16T08:48:28;21.00;21.00;15.50
69222;PMS7003;56514;51.816;-0.026;2023-04-16T08:51:40;16.75;16.75;12.75
69222;PMS7003;56514;51.816;-0.026;2023-04-16T08:55:02;14.00;14.00;10.25
69222;PMS7003;56514;51.816;-0.026;2023-04-16T08:58:17;14.00;14.00;11.50
69222;PMS7003;56514;51.816;-0.026;2023-04-16T09:01:28;16.50;16.50;13.75
69222;PMS7003;56514;51.816;-0.026;2023-04-16T09:04:38;13.00;13.00;10.50
69222;PMS7003;56514;51.816;-0.026;2023-04-16T09:07:49;15.75;14.25;12.00
69222;PMS7003;56514;51.816;-0.026;2023-04-16T09:11:00;11.50;11.50;10.00
69222;PMS7003;56514;51.816;-0.026;2023-04-16T09:14:09;10.00;10.00;9.25
69222;PMS7003;56514;51.816;-0.026;2023-04-16T09:17:20;10.50;10.50;9.50
69222;PMS7003;56514;51.816;-0.026;2023-04-16T09:20:29;9.25;9.25;7.00
69222;PMS7003;56514;51.816;-0.026;2023-04-16T09:23:39;11.00;11.00;10.00
69222;PMS7003;56514;51.816;-0.026;2023-04-16T09:26:50;8.25;8.25;6.50
69222;PMS7003;56514;51.816;-0.026;2023-04-16T09:30:22;11.25;11.25;9.00
69222;PMS7003;56514;51.816;-0.026;2023-04-16T09:33:34;9.00;9.00;7.75
69222;PMS7003;56514;51.816;-0.026;2023-04-16T09:36:43;13.50;13.50;11.00
69222;PMS7003;56514;51.816;-0.026;2023-04-16T09:39:29;14.00;12.00;10.00
69222;PMS7003;56514;51.816;-0.026;2023-04-16T09:42:14;8.25;8.25;6.25
69222;PMS7003;56514;51.816;-0.026;2023-04-16T09:45:06;6.00;6.00;5.25
69222;PMS7003;56514;51.816;-0.026;2023-04-16T09:47:51;6.25;6.25;5.75
69222;PMS7003;56514;51.816;-0.026;2023-04-16T09:50:36;8.50;8.50;7.25
69222;PMS7003;56514;51.816;-0.026;2023-04-16T09:53:24;7.25;7.25;6.25
69222;PMS7003;56514;51.816;-0.026;2023-04-16T09:56:10;5.00;5.00;5.00
69222;PMS7003;56514;51.816;-0.026;2023-04-16T09:58:56;5.00;5.00;5.00
69222;PMS7003;56514;51.816;-0.026;2023-04-16T10:01:43;5.00;5.00;5.00
69222;PMS7003;56514;51.816;-0.026;2023-04-16T10:07:34;4.50;4.50;4.00
69222;PMS7003;56514;51.816;-0.026;2023-04-16T10:10:20;6.75;6.75;5.00
69222;PMS7003;56514;51.816;-0.026;2023-04-16T10:13:25;3.00;3.00;3.00
69222;PMS7003;56514;51.816;-0.026;2023-04-16T10:16:33;3.00;3.00;3.00
69222;PMS7003;56514;51.816;-0.026;2023-04-16T10:19:38;4.25;4.25;3.50
69222;PMS7003;56514;51.816;-0.026;2023-04-16T10:22:44;2.25;2.25;2.25
69222;PMS7003;56514;51.816;-0.026;2023-04-16T10:25:30;3.25;3.25;3.00
69222;PMS7003;56514;51.816;-0.026;2023-04-16T10:28:16;6.75;6.75;6.00
69222;PMS7003;56514;51.816;-0.026;2023-04-16T10:31:02;3.00;3.00;3.00
69222;PMS7003;56514;51.816;-0.026;2023-04-16T10:33:49;2.25;2.25;2.25
69222;PMS7003;56514;51.816;-0.026;2023-04-16T10:36:37;2.00;2.00;2.00
69222;PMS7003;56514;51.816;-0.026;2023-04-16T10:39:24;1.25;1.25;1.00
69222;PMS7003;56514;51.816;-0.026;2023-04-16T10:42:11;2.00;2.00;2.00
69222;PMS7003;56514;51.816;-0.026;2023-04-16T10:44:58;2.25;2.25;2.00
69222;PMS7003;56514;51.816;-0.026;2023-04-16T10:47:43;1.00;1.00;1.00
69222;PMS7003;56514;51.816;-0.026;2023-04-16T10:50:35;1.50;1.50;1.25
69222;PMS7003;56514;51.816;-0.026;2023-04-16T10:56:10;1.75;1.75;1.75
69222;PMS7003;56514;51.816;-0.026;2023-04-16T10:58:58;2.00;2.00;2.00
69222;PMS7003;56514;51.816;-0.026;2023-04-16T11:01:48;2.00;2.00;2.00
69222;PMS7003;56514;51.816;-0.026;2023-04-16T11:04:42;3.00;3.00;2.75
69222;PMS7003;56514;51.816;-0.026;2023-04-16T11:07:33;1.00;1.00;0.75
69222;PMS7003;56514;51.816;-0.026;2023-04-16T11:10:18;2.00;2.00;2.00
69222;PMS7003;56514;51.816;-0.026;2023-04-16T11:13:03;1.75;1.75;1.25
69222;PMS7003;56514;51.816;-0.026;2023-04-16T11:15:49;0.50;0.50;0.00
69222;PMS7003;56514;51.816;-0.026;2023-04-16T11:18:35;1.00;1.00;1.00
69222;PMS7003;56514;51.816;-0.026;2023-04-16T11:21:20;1.00;1.00;0.00
69222;PMS7003;56514;51.816;-0.026;2023-04-16T11:24:05;1.00;1.00;1.00
69222;PMS7003;56514;51.816;-0.026;2023-04-16T11:26:59;1.00;1.00;1.00
69222;PMS7003;56514;51.816;-0.026;2023-04-16T11:29:44;2.00;2.00;2.00
69222;PMS7003;56514;51.816;-0.026;2023-04-16T11:32:32;0.25;0.25;0.25
69222;PMS7003;56514;51.816;-0.026;2023-04-16T11:35:18;1.00;1.00;1.00
69222;PMS7003;56514;51.816;-0.026;2023-04-16T11:38:03;1.00;1.00;1.00
69222;PMS7003;56514;51.816;-0.026;2023-04-16T11:40:51;0.75;0.75;0.75
69222;PMS7003;56514;51.816;-0.026;2023-04-16T11:43:37;1.00;1.00;1.00
69222;PMS7003;56514;51.816;-0.026;2023-04-16T11:46:22;0.00;0.00;0.00
69222;PMS7003;56514;51.816;-0.026;2023-04-16T11:49:28;1.00;1.00;1.00
69222;PMS7003;56514;51.816;-0.026;2023-04-16T11:52:14;1.00;1.00;1.00
69222;PMS7003;56514;51.816;-0.026;2023-04-16T11:55:10;2.00;2.00;2.00
69222;PMS7003;56514;51.816;-0.026;2023-04-16T11:58:10;1.00;1.00;0.75
69222;PMS7003;56514;51.816;-0.026;2023-04-16T12:00:59;3.00;3.00;3.00
69222;PMS7003;56514;51.816;-0.026;2023-04-16T12:03:45;1.50;1.50;1.50
69222;PMS7003;56514;51.816;-0.026;2023-04-16T12:06:32;1.50;1.50;1.50
69222;PMS7003;56514;51.816;-0.026;2023-04-16T12:09:24;2.00;2.00;1.00
69222;PMS7003;56514;51.816;-0.026;2023-04-16T12:12:26;1.75;1.75;1.75
69222;PMS7003;56514;51.816;-0.026;2023-04-16T12:15:14;2.00;2.00;2.00
69222;PMS7003;56514;51.816;-0.026;2023-04-16T12:18:05;1.25;1.25;1.25
69222;PMS7003;56514;51.816;-0.026;2023-04-16T12:20:51;1.50;1.50;1.50
69222;PMS7003;56514;51.816;-0.026;2023-04-16T12:23:36;1.00;1.00;1.00
69222;PMS7003;56514;51.816;-0.026;2023-04-16T12:26:21;1.00;1.00;1.00
69222;PMS7003;56514;51.816;-0.026;2023-04-16T12:29:25;1.75;1.75;1.50
69222;PMS7003;56514;51.816;-0.026;2023-04-16T12:32:20;1.00;1.00;1.00
69222;PMS7003;56514;51.816;-0.026;2023-04-16T12:35:06;1.00;1.00;1.00
69222;PMS7003;56514;51.816;-0.026;2023-04-16T12:37:52;1.25;1.25;1.25
69222;PMS7003;56514;51.816;-0.026;2023-04-16T12:40:37;1.25;1.25;1.25
69222;PMS7003;56514;51.816;-0.026;2023-04-16T12:43:22;1.00;1.00;1.00
69222;PMS7003;56514;51.816;-0.026;2023-04-16T12:46:07;2.00;2.00;1.75
69222;PMS7003;56514;51.816;-0.026;2023-04-16T12:48:52;0.75;0.75;0.75
69222;PMS7003;56514;51.816;-0.026;2023-04-16T12:51:37;0.75;0.75;0.75
69222;PMS7003;56514;51.816;-0.026;2023-04-16T12:54:22;1.25;1.25;1.00
69222;PMS7003;56514;51.816;-0.026;2023-04-16T12:57:08;1.00;1.00;1.00
69222;PMS7003;56514;51.816;-0.026;2023-04-16T12:59:56;0.50;0.50;0.50
69222;PMS7003;56514;51.816;-0.026;2023-04-16T13:02:41;0.00;0.00;0.00
69222;PMS7003;56514;51.816;-0.026;2023-04-16T13:05:26;0.00;0.00;0.00
69222;PMS7003;56514;51.816;-0.026;2023-04-16T13:08:11;1.00;1.00;1.00
69222;PMS7003;56514;51.816;-0.026;2023-04-16T13:10:56;0.25;0.25;0.25
69222;PMS7003;56514;51.816;-0.026;2023-04-16T13:13:40;1.00;1.00;1.00
69222;PMS7003;56514;51.816;-0.026;2023-04-16T13:16:25;0.00;0.00;0.00
69222;PMS7003;56514;51.816;-0.026;2023-04-16T13:19:10;1.00;1.00;1.00
69222;PMS7003;56514;51.816;-0.026;2023-04-16T13:21:57;1.00;1.00;1.00
69222;PMS7003;56514;51.816;-0.026;2023-04-16T13:24:42;1.00;1.00;1.00
69222;PMS7003;56514;51.816;-0.026;2023-04-16T13:27:27;0.25;0.25;0.25
69222;PMS7003;56514;51.816;-0.026;2023-04-16T13:30:12;0.00;0.00;0.00
69222;PMS7003;56514;51.816;-0.026;2023-04-16T13:32:58;0.00;0.00;0.00
69222;PMS7003;56514;51.816;-0.026;2023-04-16T13:35:43;0.00;0.00;0.00
69222;PMS7003;56514;51.816;-0.026;2023-04-16T13:38:28;1.25;1.25;1.25
69222;PMS7003;56514;51.816;-0.026;2023-04-16T13:41:14;1.00;1.00;1.00
69222;PMS7003;56514;51.816;-0.026;2023-04-16T13:43:59;1.00;1.00;1.00
69222;PMS7003;56514;51.816;-0.026;2023-04-16T13:46:43;0.00;0.00;0.00
69222;PMS7003;56514;51.816;-0.026;2023-04-16T13:49:31;1.00;1.00;0.25
69222;PMS7003;56514;51.816;-0.026;2023-04-16T13:52:18;0.00;0.00;0.00
69222;PMS7003;56514;51.816;-0.026;2023-04-16T13:55:03;0.00;0.00;0.00
69222;PMS7003;56514;51.816;-0.026;2023-04-16T13:57:48;0.00;0.00;0.00
69222;PMS7003;56514;51.816;-0.026;2023-04-16T14:00:34;0.00;0.00;0.00
69222;PMS7003;56514;51.816;-0.026;2023-04-16T14:03:19;0.00;0.00;0.00
69222;PMS7003;56514;51.816;-0.026;2023-04-16T14:06:04;0.00;0.00;0.00
69222;PMS7003;56514;51.816;-0.026;2023-04-16T14:08:50;0.75;0.75;0.00
69222;PMS7003;56514;51.816;-0.026;2023-04-16T14:11:36;1.00;1.00;1.00
69222;PMS7003;56514;51.816;-0.026;2023-04-16T14:14:21;1.00;1.00;1.00
69222;PMS7003;56514;51.816;-0.026;2023-04-16T14:17:05;1.00;1.00;0.25
69222;PMS7003;56514;51.816;-0.026;2023-04-16T14:19:50;1.00;1.00;1.00
69222;PMS7003;56514;51.816;-0.026;2023-04-16T14:22:35;0.00;0.00;0.00
69222;PMS7003;56514;51.816;-0.026;2023-04-16T14:25:20;0.50;0.50;0.50
69222;PMS7003;56514;51.816;-0.026;2023-04-16T14:28:05;0.00;0.00;0.00
69222;PMS7003;56514;51.816;-0.026;2023-04-16T14:30:50;0.00;0.00;0.00
69222;PMS7003;56514;51.816;-0.026;2023-04-16T14:33:36;0.00;0.00;0.00
69222;PMS7003;56514;51.816;-0.026;2023-04-16T14:36:21;0.00;0.00;0.00
69222;PMS7003;56514;51.816;-0.026;2023-04-16T14:39:05;0.00;0.00;0.00
69222;PMS7003;56514;51.816;-0.026;2023-04-16T14:41:51;0.00;0.00;0.00
69222;PMS7003;56514;51.816;-0.026;2023-04-16T14:44:37;0.00;0.00;0.00
69222;PMS7003;56514;51.816;-0.026;2023-04-16T14:47:22;1.00;1.00;1.00
69222;PMS7003;56514;51.816;-0.026;2023-04-16T14:50:06;1.00;1.00;1.00
69222;PMS7003;56514;51.816;-0.026;2023-04-16T14:52:52;0.25;0.25;0.25
69222;PMS7003;56514;51.816;-0.026;2023-04-16T14:55:37;1.00;1.00;1.00
69222;PMS7003;56514;51.816;-0.026;2023-04-16T14:58:28;0.00;0.00;0.00
69222;PMS7003;56514;51.816;-0.026;2023-04-16T15:01:19;0.00;0.00;0.00
69222;PMS7003;56514;51.816;-0.026;2023-04-16T15:04:04;0.00;0.00;0.00
69222;PMS7003;56514;51.816;-0.026;2023-04-16T15:06:50;0.00;0.00;0.00
69222;PMS7003;56514;51.816;-0.026;2023-04-16T15:09:37;0.50;0.00;0.00
69222;PMS7003;56514;51.816;-0.026;2023-04-16T15:12:22;0.25;0.25;0.25
69222;PMS7003;56514;51.816;-0.026;2023-04-16T15:15:08;0.00;0.00;0.00
69222;PMS7003;56514;51.816;-0.026;2023-04-16T15:17:53;0.00;0.00;0.00
69222;PMS7003;56514;51.816;-0.026;2023-04-16T15:20:40;1.00;0.25;0.25
69222;PMS7003;56514;51.816;-0.026;2023-04-16T15:23:25;1.00;1.00;1.00
69222;PMS7003;56514;51.816;-0.026;2023-04-16T15:26:09;0.75;0.75;0.75
69222;PMS7003;56514;51.816;-0.026;2023-04-16T15:28:55;0.00;0.00;0.00
69222;PMS7003;56514;51.816;-0.026;2023-04-16T15:31:39;0.00;0.00;0.00
69222;PMS7003;56514;51.816;-0.026;2023-04-16T15:34:28;0.00;0.00;0.00
69222;PMS7003;56514;51.816;-0.026;2023-04-16T15:37:14;0.25;0.25;0.00
69222;PMS7003;56514;51.816;-0.026;2023-04-16T15:39:59;0.00;0.00;0.00
69222;PMS7003;56514;51.816;-0.026;2023-04-16T15:42:44;0.00;0.00;0.00
69222;PMS7003;56514;51.816;-0.026;2023-04-16T15:45:29;0.00;0.00;0.00
69222;PMS7003;56514;51.816;-0.026;2023-04-16T15:48:15;0.00;0.00;0.00
69222;PMS7003;56514;51.816;-0.026;2023-04-16T15:51:00;0.75;0.75;0.00